createdAt,value
2023-04-09T00:00:37.616Z,31.36
2023-04-09T00:01:37.643Z,31.36
2023-04-09T00:02:37.704Z,31.37
2023-04-09T00:03:37.696Z,31.36
2023-04-09T00:04:37.640Z,31.38
2023-04-09T00:05:37.645Z,31.38
2023-04-09T00:06:38.354Z,31.37
2023-04-09T00:07:37.659Z,31.38
2023-04-09T00:08:37.687Z,31.38
2023-04-09T00:09:37.714Z,31.37
2023-04-09T00:10:37.675Z,31.35
2023-04-09T00:11:37.698Z,31.35
2023-04-09T00:12:37.695Z,31.36
2023-04-09T00:13:39.710Z,31.36
2023-04-09T00:14:37.727Z,31.35
2023-04-09T00:15:37.701Z,31.35
2023-04-09T00:16:37.807Z,31.36
2023-04-09T00:17:37.769Z,31.36
2023-04-09T00:18:37.786Z,31.35
2023-04-09T00:19:37.750Z,31.38
2023-04-09T00:20:37.756Z,31.36
2023-04-09T00:21:37.792Z,31.35
2023-04-09T00:22:37.781Z,31.33
2023-04-09T00:23:37.808Z,31.35
2023-04-09T00:24:37.772Z,31.33
2023-04-09T00:25:37.780Z,31.35
2023-04-09T00:26:37.796Z,31.36
2023-04-09T00:27:37.844Z,31.38
2023-04-09T00:28:37.856Z,31.36
2023-04-09T00:29:37.821Z,31.36
2023-04-09T00:30:37.853Z,31.37
2023-04-09T00:31:37.903Z,31.37
2023-04-09T00:32:37.936Z,31.37
2023-04-09T00:33:37.882Z,31.37
2023-04-09T00:34:37.907Z,31.35
2023-04-09T00:35:37.987Z,31.36
2023-04-09T00:36:37.898Z,31.35
2023-04-09T00:37:37.912Z,31.37
2023-04-09T00:38:37.939Z,31.34
2023-04-09T00:39:37.961Z,31.36
2023-04-09T00:40:37.944Z,31.35
2023-04-09T00:41:37.975Z,31.35
2023-04-09T00:42:37.952Z,31.37
2023-04-09T00:43:37.966Z,31.36
2023-04-09T00:44:37.993Z,31.39
2023-04-09T00:45:38.041Z,31.35
2023-04-09T00:46:37.992Z,31.36
2023-04-09T00:47:38.045Z,31.36
2023-04-09T00:48:38.018Z,31.36
2023-04-09T00:49:38.017Z,31.36
2023-04-09T00:50:37.992Z,31.37
2023-04-09T00:51:38.043Z,31.37
2023-04-09T00:52:38.048Z,31.37
2023-04-09T00:53:38.057Z,31.37
2023-04-09T00:54:38.052Z,31.37
2023-04-09T00:55:38.052Z,31.38
2023-04-09T00:56:38.073Z,31.37
2023-04-09T00:57:38.053Z,31.37
2023-04-09T00:58:38.142Z,31.37
2023-04-09T00:59:38.095Z,31.37
2023-04-09T01:00:38.121Z,31.38
2023-04-09T01:01:38.221Z,31.37
2023-04-09T01:02:38.393Z,31.35
2023-04-09T01:03:38.234Z,31.36
2023-04-09T01:04:38.150Z,31.36
2023-04-09T01:05:38.201Z,31.36
2023-04-09T01:06:38.176Z,31.39
2023-04-09T01:07:38.235Z,31.36
2023-04-09T01:08:38.212Z,31.37
2023-04-09T01:09:38.223Z,31.38
2023-04-09T01:10:38.224Z,31.37
2023-04-09T01:11:38.238Z,31.36
2023-04-09T01:12:38.273Z,31.38
2023-04-09T01:13:38.319Z,31.37
2023-04-09T01:14:38.291Z,31.38
2023-04-09T01:15:38.307Z,31.38
2023-04-09T01:16:38.317Z,31.37
2023-04-09T01:17:38.352Z,31.36
2023-04-09T01:18:38.349Z,31.37
2023-04-09T01:19:38.340Z,31.36
2023-04-09T01:20:38.359Z,31.35
2023-04-09T01:21:38.379Z,31.38
2023-04-09T01:22:38.370Z,31.38
2023-04-09T01:23:38.473Z,31.38
2023-04-09T01:24:38.411Z,31.37
2023-04-09T01:25:38.416Z,31.37
2023-04-09T01:26:38.504Z,31.37
2023-04-09T01:27:38.455Z,31.38
2023-04-09T01:28:38.493Z,31.38
2023-04-09T01:29:38.519Z,31.37
2023-04-09T01:30:38.508Z,31.38
2023-04-09T01:31:38.481Z,31.38
2023-04-09T01:32:38.567Z,31.39
2023-04-09T01:33:38.555Z,31.37
2023-04-09T01:34:38.556Z,31.38
2023-04-09T01:35:38.565Z,31.38
2023-04-09T01:36:38.569Z,31.38
2023-04-09T01:37:38.608Z,31.38
2023-04-09T01:38:38.615Z,31.38
2023-04-09T01:39:38.586Z,31.37
2023-04-09T01:40:38.625Z,31.37
2023-04-09T01:41:38.631Z,31.37
2023-04-09T01:42:38.649Z,31.37
2023-04-09T01:43:38.654Z,31.38
2023-04-09T01:44:38.661Z,31.39
2023-04-09T01:45:38.664Z,31.39
2023-04-09T01:46:38.709Z,31.40
2023-04-09T01:47:38.749Z,31.38
2023-04-09T01:48:38.776Z,31.36
2023-04-09T01:49:38.706Z,31.39
2023-04-09T01:50:38.747Z,31.39
2023-04-09T01:51:38.745Z,31.40
2023-04-09T01:52:38.780Z,31.37
2023-04-09T01:53:38.814Z,31.37
2023-04-09T01:54:38.775Z,31.39
2023-04-09T01:55:38.834Z,31.37
2023-04-09T01:56:38.834Z,31.37
2023-04-09T01:57:38.843Z,31.38
2023-04-09T01:58:38.883Z,31.39
2023-04-09T01:59:38.864Z,31.38
2023-04-09T02:00:38.873Z,31.40
2023-04-09T02:01:38.949Z,31.42
2023-04-09T02:02:38.978Z,31.39
2023-04-09T02:03:39.075Z,31.38
2023-04-09T02:04:38.948Z,31.37
2023-04-09T02:05:38.986Z,31.39
2023-04-09T02:06:38.992Z,31.39
2023-04-09T02:07:38.991Z,31.37
2023-04-09T02:08:39.038Z,31.40
2023-04-09T02:09:39.025Z,31.39
2023-04-09T02:10:39.028Z,31.39
2023-04-09T02:11:39.048Z,31.38
2023-04-09T02:12:39.041Z,31.36
2023-04-09T02:13:39.070Z,31.40
2023-04-09T02:14:39.054Z,31.39
2023-04-09T02:15:39.196Z,31.40
2023-04-09T02:16:39.120Z,31.39
2023-04-09T02:17:39.121Z,31.37
2023-04-09T02:18:39.206Z,31.40
2023-04-09T02:19:39.155Z,31.40
2023-04-09T02:20:39.164Z,31.40
2023-04-09T02:21:39.133Z,31.39
2023-04-09T02:22:39.195Z,31.39
2023-04-09T02:23:39.226Z,31.40
2023-04-09T02:24:39.185Z,31.39
2023-04-09T02:25:39.215Z,31.41
2023-04-09T02:26:39.209Z,31.38
2023-04-09T02:27:39.270Z,31.43
2023-04-09T02:28:39.328Z,31.37
2023-04-09T02:29:39.257Z,31.41
2023-04-09T02:30:39.292Z,31.39
2023-04-09T02:31:39.319Z,31.40
2023-04-09T02:32:39.363Z,31.41
2023-04-09T02:33:39.360Z,31.41
2023-04-09T02:34:39.370Z,31.41
2023-04-09T02:35:39.360Z,31.39
2023-04-09T02:36:39.362Z,31.41
2023-04-09T02:37:39.390Z,31.41
2023-04-09T02:38:39.392Z,31.40
2023-04-09T02:39:39.434Z,31.42
2023-04-09T02:40:39.439Z,31.42
2023-04-09T02:41:39.444Z,31.41
2023-04-09T02:42:39.455Z,31.41
2023-04-09T02:43:39.509Z,31.40
2023-04-09T02:44:39.487Z,31.39
2023-04-09T02:45:39.509Z,31.40
2023-04-09T02:46:39.641Z,31.40
2023-04-09T02:47:39.564Z,31.39
2023-04-09T02:48:39.570Z,31.42
2023-04-09T02:49:39.593Z,31.40
2023-04-09T02:50:39.577Z,31.42
2023-04-09T02:51:39.626Z,31.40
2023-04-09T02:52:39.667Z,31.41
2023-04-09T02:53:39.738Z,31.41
2023-04-09T02:54:39.663Z,31.40
2023-04-09T02:55:39.694Z,31.41
2023-04-09T02:56:39.702Z,31.38
2023-04-09T02:57:39.707Z,31.39
2023-04-09T02:58:39.739Z,31.41
2023-04-09T02:59:39.750Z,31.40
2023-04-09T03:00:39.787Z,31.39
2023-04-09T03:01:39.827Z,31.38
2023-04-09T03:02:39.948Z,31.38
2023-04-09T03:03:39.930Z,31.42
2023-04-09T03:04:39.853Z,31.42
2023-04-09T03:05:39.859Z,31.43
2023-04-09T03:06:39.901Z,31.39
2023-04-09T03:07:39.900Z,31.42
2023-04-09T03:08:39.944Z,31.40
2023-04-09T03:09:39.915Z,31.42
2023-04-09T03:10:39.933Z,31.41
2023-04-09T03:11:39.975Z,31.41
2023-04-09T03:12:39.984Z,31.40
2023-04-09T03:13:39.988Z,31.40
2023-04-09T03:14:39.971Z,31.40
2023-04-09T03:15:40.043Z,31.42
2023-04-09T03:16:40.005Z,31.42
2023-04-09T03:17:40.114Z,31.43
2023-04-09T03:18:40.069Z,31.42
2023-04-09T03:19:40.085Z,31.42
2023-04-09T03:20:40.106Z,31.42
2023-04-09T03:21:40.105Z,31.39
2023-04-09T03:22:40.128Z,31.41
2023-04-09T03:23:40.178Z,31.43
2023-04-09T03:24:40.150Z,31.38
2023-04-09T03:25:40.168Z,31.41
2023-04-09T03:26:40.170Z,31.40
2023-04-09T03:27:40.210Z,31.41
2023-04-09T03:28:40.274Z,31.42
2023-04-09T03:29:40.214Z,31.43
2023-04-09T03:30:40.243Z,31.41
2023-04-09T03:31:40.346Z,31.41
2023-04-09T03:32:40.297Z,31.41
2023-04-09T03:33:40.318Z,31.40
2023-04-09T03:34:40.309Z,31.43
2023-04-09T03:35:40.339Z,31.42
2023-04-09T03:36:40.893Z,31.39
2023-04-09T03:37:40.323Z,31.42
2023-04-09T03:38:40.382Z,31.39
2023-04-09T03:39:40.380Z,31.42
2023-04-09T03:40:40.354Z,31.41
2023-04-09T03:41:40.380Z,31.41
2023-04-09T03:42:40.389Z,31.43
2023-04-09T03:43:40.428Z,31.41
2023-04-09T03:44:40.430Z,31.43
2023-04-09T03:45:40.443Z,31.41
2023-04-09T03:46:40.459Z,31.43
2023-04-09T03:47:40.562Z,31.42
2023-04-09T03:48:40.498Z,31.42
2023-04-09T03:49:40.507Z,31.42
2023-04-09T03:50:40.513Z,31.41
2023-04-09T03:51:40.523Z,31.41
2023-04-09T03:52:41.438Z,31.43
2023-04-09T03:53:40.587Z,31.41
2023-04-09T03:54:40.566Z,31.41
2023-04-09T03:55:40.589Z,31.41
2023-04-09T03:56:40.574Z,31.43
2023-04-09T03:57:40.606Z,31.42
2023-04-09T03:58:40.676Z,31.42
2023-04-09T03:59:40.651Z,31.42
2023-04-09T04:00:40.646Z,31.41
2023-04-09T04:01:40.777Z,31.41
2023-04-09T04:02:40.929Z,31.40
2023-04-09T04:03:40.872Z,31.41
2023-04-09T04:04:40.785Z,31.41
2023-04-09T04:05:40.728Z,31.41
2023-04-09T04:06:40.750Z,31.40
2023-04-09T04:07:40.764Z,31.38
2023-04-09T04:08:40.792Z,31.42
2023-04-09T04:09:40.841Z,31.40
2023-04-09T04:10:40.793Z,31.40
2023-04-09T04:11:40.841Z,31.42
2023-04-09T04:12:40.827Z,31.41
2023-04-09T04:13:40.869Z,31.42
2023-04-09T04:14:40.881Z,31.41
2023-04-09T04:15:40.872Z,31.42
2023-04-09T04:16:41.005Z,31.42
2023-04-09T04:17:40.961Z,31.41
2023-04-09T04:18:41.005Z,31.42
2023-04-09T04:19:40.949Z,31.40
2023-04-09T04:20:40.994Z,31.41
2023-04-09T04:21:40.978Z,31.43
2023-04-09T04:22:41.013Z,31.43
2023-04-09T04:23:41.035Z,31.41
2023-04-09T04:24:41.075Z,31.41
2023-04-09T04:25:41.052Z,31.40
2023-04-09T04:26:41.085Z,31.40
2023-04-09T04:27:41.083Z,31.42
2023-04-09T04:28:41.142Z,31.42
2023-04-09T04:29:41.123Z,31.44
2023-04-09T04:30:41.136Z,31.44
2023-04-09T04:31:41.141Z,31.44
2023-04-09T04:32:41.204Z,31.43
2023-04-09T04:33:41.214Z,31.41
2023-04-09T04:34:41.209Z,31.43
2023-04-09T04:35:41.258Z,31.41
2023-04-09T04:36:41.248Z,31.41
2023-04-09T04:37:41.235Z,31.41
2023-04-09T04:38:41.310Z,31.43
2023-04-09T04:39:41.272Z,31.42
2023-04-09T04:40:41.322Z,31.44
2023-04-09T04:41:41.305Z,31.43
2023-04-09T04:42:41.353Z,31.40
2023-04-09T04:43:41.435Z,31.42
2023-04-09T04:44:41.433Z,31.39
2023-04-09T04:45:41.425Z,31.44
2023-04-09T04:46:41.424Z,31.42
2023-04-09T04:47:41.464Z,31.41
2023-04-09T04:48:41.512Z,31.42
2023-04-09T04:49:41.502Z,31.41
2023-04-09T04:50:41.529Z,31.43
2023-04-09T04:51:41.559Z,31.41
2023-04-09T04:52:41.555Z,31.42
2023-04-09T04:53:41.588Z,31.42
2023-04-09T04:54:41.577Z,31.40
2023-04-09T04:55:41.619Z,31.42
2023-04-09T04:56:41.671Z,31.42
2023-04-09T04:57:41.671Z,31.42
2023-04-09T04:58:41.721Z,31.43
2023-04-09T04:59:41.705Z,31.44
2023-04-09T05:00:41.748Z,31.43
2023-04-09T05:01:41.846Z,31.45
2023-04-09T05:02:41.901Z,31.43
2023-04-09T05:03:41.896Z,31.41
2023-04-09T05:04:41.820Z,31.44
2023-04-09T05:05:41.884Z,31.45
2023-04-09T05:06:41.866Z,31.44
2023-04-09T05:07:41.917Z,31.43
2023-04-09T05:08:41.947Z,31.44
2023-04-09T05:09:41.957Z,31.44
2023-04-09T05:10:41.956Z,31.45
2023-04-09T05:11:42.007Z,31.44
2023-04-09T05:12:42.029Z,31.42
2023-04-09T05:13:42.076Z,31.45
2023-04-09T05:14:42.065Z,31.45
2023-04-09T05:15:42.109Z,31.40
2023-04-09T05:16:42.131Z,31.44
2023-04-09T05:17:42.153Z,31.43
2023-04-09T05:18:42.215Z,31.45
2023-04-09T05:19:42.174Z,31.43
2023-04-09T05:20:42.185Z,31.43
2023-04-09T05:21:42.187Z,31.45
2023-04-09T05:22:42.289Z,31.46
2023-04-09T05:23:42.277Z,31.41
2023-04-09T05:24:42.269Z,31.43
2023-04-09T05:25:42.334Z,31.45
2023-04-09T05:26:42.354Z,31.44
2023-04-09T05:27:42.370Z,31.43
2023-04-09T05:28:42.389Z,31.44
2023-04-09T05:29:42.422Z,31.44
2023-04-09T05:30:42.468Z,31.43
2023-04-09T05:31:42.465Z,31.43
2023-04-09T05:32:42.571Z,31.43
2023-04-09T05:33:42.574Z,31.45
2023-04-09T05:34:42.569Z,31.45
2023-04-09T05:35:42.612Z,31.42
2023-04-09T05:36:42.631Z,31.43
2023-04-09T05:37:42.616Z,31.43
2023-04-09T05:38:42.635Z,31.42
2023-04-09T05:39:42.698Z,31.43
2023-04-09T05:40:42.674Z,31.44
2023-04-09T05:41:42.683Z,31.45
2023-04-09T05:42:42.716Z,31.44
2023-04-09T05:43:42.770Z,31.43
2023-04-09T05:44:42.775Z,31.44
2023-04-09T05:45:42.832Z,31.45
2023-04-09T05:46:42.780Z,31.43
2023-04-09T05:47:42.894Z,31.44
2023-04-09T05:48:42.872Z,31.43
2023-04-09T05:49:42.915Z,31.44
2023-04-09T05:50:53.842Z,31.43
2023-04-09T05:51:43.882Z,31.45
2023-04-09T05:52:42.879Z,31.43
2023-04-09T05:53:42.925Z,31.46
2023-04-09T05:54:42.870Z,31.47
2023-04-09T05:55:42.887Z,31.45
2023-04-09T05:56:42.863Z,31.42
2023-04-09T05:57:42.826Z,31.42
2023-04-09T05:58:42.840Z,31.41
2023-04-09T05:59:42.840Z,31.44
2023-04-09T06:00:42.810Z,31.43
2023-04-09T06:01:42.826Z,31.44
2023-04-09T06:02:42.871Z,31.42
2023-04-09T06:03:42.950Z,31.44
2023-04-09T06:04:42.839Z,31.43
2023-04-09T06:05:42.777Z,31.43
2023-04-09T06:06:42.813Z,31.40
2023-04-09T06:07:42.825Z,31.43
2023-04-09T06:08:42.777Z,31.41
2023-04-09T06:09:42.787Z,31.43
2023-04-09T06:10:42.781Z,31.41
2023-04-09T06:11:42.757Z,31.42
2023-04-09T06:12:42.749Z,31.43
2023-04-09T06:13:42.732Z,31.42
2023-04-09T06:14:42.790Z,31.42
2023-04-09T06:15:42.825Z,31.42
2023-04-09T06:16:42.796Z,31.43
2023-04-09T06:17:42.836Z,31.44
2023-04-09T06:18:42.834Z,31.42
2023-04-09T06:19:42.847Z,31.43
2023-04-09T06:20:42.880Z,31.45
2023-04-09T06:21:42.885Z,31.44
2023-04-09T06:22:42.918Z,31.42
2023-04-09T06:23:42.922Z,31.43
2023-04-09T06:24:42.931Z,31.43
2023-04-09T06:25:42.963Z,31.44
2023-04-09T06:26:42.960Z,31.44
2023-04-09T06:27:42.982Z,31.45
2023-04-09T06:28:42.991Z,31.43
2023-04-09T06:29:43.025Z,31.44
2023-04-09T06:30:43.054Z,31.44
2023-04-09T06:31:43.154Z,31.45
2023-04-09T06:32:53.036Z,31.42
2023-04-09T06:33:44.075Z,31.44
2023-04-09T06:34:43.048Z,31.43
2023-04-09T06:35:43.069Z,31.42
2023-04-09T06:36:43.036Z,31.43
2023-04-09T06:37:43.041Z,31.42
2023-04-09T06:38:43.051Z,31.43
2023-04-09T06:39:50.694Z,31.42
2023-04-09T06:40:44.021Z,31.45
2023-04-09T06:41:43.025Z,31.42
2023-04-09T06:42:42.982Z,31.43
2023-04-09T06:43:42.963Z,31.41
2023-04-09T06:44:42.966Z,31.43
2023-04-09T06:45:42.975Z,31.42
2023-04-09T06:46:42.994Z,31.42
2023-04-09T06:47:43.515Z,31.41
2023-04-09T06:48:42.929Z,31.41
2023-04-09T06:49:42.936Z,31.42
2023-04-09T06:50:42.902Z,31.40
2023-04-09T06:51:42.912Z,31.40
2023-04-09T06:52:42.989Z,31.41
2023-04-09T06:53:42.928Z,31.43
2023-04-09T06:54:42.895Z,31.42
2023-04-09T06:55:42.894Z,31.43
2023-04-09T06:56:42.911Z,31.41
2023-04-09T06:57:42.888Z,31.43
2023-04-09T06:58:42.880Z,31.42
2023-04-09T06:59:42.881Z,31.42
2023-04-09T07:00:42.846Z,31.40
2023-04-09T07:01:42.976Z,31.39
2023-04-09T07:02:43.035Z,31.40
2023-04-09T07:03:42.897Z,31.42
2023-04-09T07:04:42.892Z,31.40
2023-04-09T07:05:42.800Z,31.40
2023-04-09T07:06:42.847Z,31.40
2023-04-09T07:07:42.872Z,31.40
2023-04-09T07:08:42.865Z,31.40
2023-04-09T07:09:42.879Z,31.39
2023-04-09T07:10:42.911Z,31.40
2023-04-09T07:11:42.892Z,31.37
2023-04-09T07:12:42.920Z,31.38
2023-04-09T07:13:42.932Z,31.41
2023-04-09T07:14:42.946Z,31.40
2023-04-09T07:15:43.004Z,31.39
2023-04-09T07:16:42.987Z,31.40
2023-04-09T07:17:42.990Z,31.40
2023-04-09T07:18:42.991Z,31.39
2023-04-09T07:19:43.038Z,31.40
2023-04-09T07:20:43.024Z,31.35
2023-04-09T07:21:43.024Z,31.39
2023-04-09T07:22:43.054Z,31.38
2023-04-09T07:23:43.490Z,31.37
2023-04-09T07:24:43.103Z,31.39
2023-04-09T07:25:43.122Z,31.37
2023-04-09T07:26:43.115Z,31.37
2023-04-09T07:27:43.141Z,31.37
2023-04-09T07:28:43.152Z,31.40
2023-04-09T07:29:43.205Z,31.36
2023-04-09T07:30:43.194Z,31.39
2023-04-09T07:31:43.222Z,31.40
2023-04-09T07:32:43.305Z,31.39
2023-04-09T07:33:43.234Z,31.40
2023-04-09T07:34:43.276Z,31.39
2023-04-09T07:35:43.278Z,31.39
2023-04-09T07:36:44.022Z,31.39
2023-04-09T07:37:43.297Z,31.41
2023-04-09T07:38:43.300Z,31.39
2023-04-09T07:39:43.307Z,31.40
2023-04-09T07:40:43.370Z,31.38
2023-04-09T07:41:43.333Z,31.39
2023-04-09T07:42:43.383Z,31.41
2023-04-09T07:43:43.392Z,31.40
2023-04-09T07:44:43.390Z,31.38
2023-04-09T07:45:43.387Z,31.39
2023-04-09T07:46:43.494Z,31.40
2023-04-09T07:47:43.455Z,31.40
2023-04-09T07:48:43.452Z,31.41
2023-04-09T07:49:43.531Z,31.38
2023-04-09T07:50:43.479Z,31.38
2023-04-09T07:51:43.690Z,31.38
2023-04-09T07:52:43.551Z,31.41
2023-04-09T07:53:43.527Z,31.39
2023-04-09T07:54:43.544Z,31.36
2023-04-09T07:55:43.564Z,31.36
2023-04-09T07:56:43.595Z,31.39
2023-04-09T07:57:43.588Z,31.34
2023-04-09T07:58:43.581Z,31.36
2023-04-09T07:59:43.611Z,31.35
2023-04-09T08:00:43.647Z,31.36
2023-04-09T08:01:43.731Z,31.36
2023-04-09T08:02:43.775Z,31.36
2023-04-09T08:03:43.886Z,31.34
2023-04-09T08:04:44.024Z,31.35
2023-04-09T08:05:43.699Z,31.36
2023-04-09T08:06:43.709Z,31.34
2023-04-09T08:07:43.733Z,31.33
2023-04-09T08:08:43.772Z,31.33
2023-04-09T08:09:43.771Z,31.33
2023-04-09T08:10:43.770Z,31.33
2023-04-09T08:11:43.777Z,31.33
2023-04-09T08:12:43.786Z,31.33
2023-04-09T08:13:43.801Z,31.31
2023-04-09T08:14:43.791Z,31.32
2023-04-09T08:15:43.828Z,31.31
2023-04-09T08:16:43.853Z,31.30
2023-04-09T08:17:43.948Z,31.32
2023-04-09T08:18:43.857Z,31.28
2023-04-09T08:19:43.860Z,31.27
2023-04-09T08:20:43.859Z,31.28
2023-04-09T08:21:43.851Z,31.27
2023-04-09T08:22:43.888Z,31.25
2023-04-09T08:23:43.884Z,31.25
2023-04-09T08:24:43.915Z,31.23
2023-04-09T08:25:43.884Z,31.20
2023-04-09T08:26:43.921Z,31.19
2023-04-09T08:27:43.904Z,31.19
2023-04-09T08:28:43.900Z,31.16
2023-04-09T08:29:43.899Z,31.18
2023-04-09T08:30:43.910Z,31.17
2023-04-09T08:31:43.932Z,31.17
2023-04-09T08:32:43.925Z,31.14
2023-04-09T08:33:43.918Z,31.13
2023-04-09T08:34:43.900Z,31.13
2023-04-09T08:35:43.895Z,31.14
2023-04-09T08:36:43.949Z,31.14
2023-04-09T08:37:43.889Z,31.13
2023-04-09T08:38:43.899Z,31.13
2023-04-09T08:39:43.901Z,31.12
2023-04-09T08:40:43.908Z,31.13
2023-04-09T08:41:43.924Z,31.12
2023-04-09T08:42:43.878Z,31.09
2023-04-09T08:43:57.083Z,31.07
2023-04-09T08:44:44.857Z,31.10
2023-04-09T08:45:43.897Z,31.08
2023-04-09T08:46:43.833Z,31.08
2023-04-09T08:47:43.909Z,31.08
2023-04-09T08:48:43.896Z,31.07
2023-04-09T08:49:43.836Z,31.06
2023-04-09T08:50:43.822Z,31.08
2023-04-09T08:51:43.799Z,31.09
2023-04-09T08:52:43.819Z,31.08
2023-04-09T08:53:43.775Z,31.05
2023-04-09T08:54:43.856Z,31.07
2023-04-09T08:55:43.793Z,31.07
2023-04-09T08:56:43.794Z,31.06
2023-04-09T08:57:43.788Z,31.07
2023-04-09T08:58:43.776Z,31.05
2023-04-09T08:59:43.789Z,31.01
2023-04-09T09:00:43.760Z,31.03
2023-04-09T09:01:43.822Z,31.04
2023-04-09T09:02:43.839Z,31.07
2023-04-09T09:03:43.788Z,31.06
2023-04-09T09:04:43.708Z,31.03
2023-04-09T09:05:43.699Z,31.00
2023-04-09T09:06:43.726Z,30.94
2023-04-09T09:07:43.691Z,30.87
2023-04-09T09:08:43.734Z,30.87
2023-04-09T09:09:43.777Z,30.84
2023-04-09T09:10:43.823Z,30.82
2023-04-09T09:11:43.879Z,30.79
2023-04-09T09:12:43.936Z,30.77
2023-04-09T09:13:43.957Z,30.76
2023-04-09T09:14:44.012Z,30.72
2023-04-09T09:15:44.066Z,30.70
2023-04-09T09:16:44.366Z,30.67
2023-04-09T09:17:44.337Z,30.67
2023-04-09T09:18:44.378Z,30.66
2023-04-09T09:19:44.345Z,30.67
2023-04-09T09:20:44.417Z,30.66
2023-04-09T09:21:44.464Z,30.64
2023-04-09T09:22:44.533Z,30.62
2023-04-09T09:23:44.594Z,30.60
2023-04-09T09:24:44.662Z,30.55
2023-04-09T09:25:44.722Z,30.58
2023-04-09T09:26:44.785Z,30.61
2023-04-09T09:27:44.863Z,30.56
2023-04-09T09:28:44.900Z,30.60
2023-04-09T09:29:44.978Z,30.63
2023-04-09T09:30:45.617Z,30.62
2023-04-09T09:31:45.093Z,30.58
2023-04-09T09:32:45.152Z,30.61
2023-04-09T09:33:45.220Z,30.61
2023-04-09T09:34:45.292Z,30.60
2023-04-09T09:35:45.387Z,30.57
2023-04-09T09:36:45.381Z,30.56
2023-04-09T09:37:45.523Z,30.55
2023-04-09T09:38:45.494Z,30.52
2023-04-09T09:39:45.569Z,30.53
2023-04-09T09:40:45.559Z,30.51
2023-04-09T09:41:45.620Z,30.51
2023-04-09T09:42:45.687Z,30.51
2023-04-09T09:43:45.721Z,30.51
2023-04-09T09:44:45.771Z,30.49
2023-04-09T09:45:45.888Z,30.49
2023-04-09T09:46:45.875Z,30.48
2023-04-09T09:47:45.936Z,30.46
2023-04-09T09:48:45.939Z,30.47
2023-04-09T09:49:46.003Z,30.47
2023-04-09T09:50:46.036Z,30.47
2023-04-09T09:51:46.107Z,30.46
2023-04-09T09:52:46.132Z,30.45
2023-04-09T09:53:48.394Z,30.45
2023-04-09T09:54:46.176Z,30.44
2023-04-09T09:55:46.144Z,30.43
2023-04-09T09:56:46.169Z,30.41
2023-04-09T09:57:46.158Z,30.42
2023-04-09T09:58:46.173Z,30.41
2023-04-09T09:59:46.151Z,30.39
2023-04-09T10:00:46.115Z,30.39
2023-04-09T10:01:46.233Z,30.38
2023-04-09T10:02:46.168Z,30.39
2023-04-09T10:03:46.092Z,30.39
2023-04-09T10:04:46.168Z,30.40
2023-04-09T10:05:46.099Z,30.37
2023-04-09T10:06:46.097Z,30.36
2023-04-09T10:07:46.087Z,30.35
2023-04-09T10:08:46.069Z,30.35
2023-04-09T10:09:46.078Z,30.35
2023-04-09T10:10:46.029Z,30.37
2023-04-09T10:11:46.050Z,30.36
2023-04-09T10:12:46.042Z,30.33
2023-04-09T10:13:46.035Z,30.34
2023-04-09T10:14:46.024Z,30.33
2023-04-09T10:15:46.115Z,30.36
2023-04-09T10:16:46.033Z,30.33
2023-04-09T10:17:46.079Z,30.34
2023-04-09T10:18:45.984Z,30.34
2023-04-09T10:19:45.988Z,30.34
2023-04-09T10:20:45.962Z,30.34
2023-04-09T10:21:45.971Z,30.30
2023-04-09T10:22:45.955Z,30.34
2023-04-09T10:23:45.950Z,30.34
2023-04-09T10:24:45.966Z,30.34
2023-04-09T10:25:45.960Z,30.34
2023-04-09T10:26:45.941Z,30.32
2023-04-09T10:27:45.948Z,30.33
2023-04-09T10:28:45.927Z,30.31
2023-04-09T10:29:45.954Z,30.29
2023-04-09T10:30:45.978Z,30.31
2023-04-09T10:31:45.933Z,30.28
2023-04-09T10:32:45.947Z,30.28
2023-04-09T10:33:45.908Z,30.27
2023-04-09T10:34:45.892Z,30.25
2023-04-09T10:35:45.884Z,30.24
2023-04-09T10:36:45.881Z,30.25
2023-04-09T10:37:45.866Z,30.22
2023-04-09T10:38:45.890Z,30.21
2023-04-09T10:39:45.856Z,30.19
2023-04-09T10:40:45.868Z,30.19
2023-04-09T10:41:45.842Z,30.19
2023-04-09T10:42:45.808Z,30.17
2023-04-09T10:43:45.806Z,30.16
2023-04-09T10:44:45.827Z,30.16
2023-04-09T10:45:45.813Z,30.14
2023-04-09T10:46:45.843Z,30.12
2023-04-09T10:47:45.854Z,30.12
2023-04-09T10:48:45.868Z,30.13
2023-04-09T10:49:45.865Z,30.10
2023-04-09T10:50:45.899Z,30.10
2023-04-09T10:51:45.904Z,30.08
2023-04-09T10:52:45.948Z,30.07
2023-04-09T10:53:45.927Z,30.08
2023-04-09T10:54:46.049Z,30.07
2023-04-09T10:55:45.943Z,30.04
2023-04-09T10:56:45.991Z,30.02
2023-04-09T10:57:46.004Z,30.03
2023-04-09T10:58:46.024Z,30.03
2023-04-09T10:59:46.064Z,30.05
2023-04-09T11:00:46.053Z,30.06
2023-04-09T11:01:46.130Z,30.03
2023-04-09T11:02:46.177Z,30.04
2023-04-09T11:03:46.131Z,30.01
2023-04-09T11:04:46.177Z,29.97
2023-04-09T11:05:46.123Z,29.98
2023-04-09T11:06:46.133Z,30.00
2023-04-09T11:07:46.164Z,30.00
2023-04-09T11:08:46.156Z,29.98
2023-04-09T11:09:46.192Z,29.99
2023-04-09T11:10:46.198Z,30.01
2023-04-09T11:11:46.211Z,29.98
2023-04-09T11:12:46.261Z,29.98
2023-04-09T11:13:46.270Z,29.96
2023-04-09T11:14:46.285Z,29.98
2023-04-09T11:15:46.317Z,29.98
2023-04-09T11:16:46.325Z,29.97
2023-04-09T11:17:46.365Z,29.95
2023-04-09T11:18:46.323Z,29.93
2023-04-09T11:19:46.348Z,29.93
2023-04-09T11:20:46.347Z,29.92
2023-04-09T11:21:46.418Z,29.90
2023-04-09T11:22:46.369Z,29.93
2023-04-09T11:23:46.405Z,29.91
2023-04-09T11:24:46.389Z,29.92
2023-04-09T11:25:46.389Z,29.91
2023-04-09T11:26:46.445Z,29.90
2023-04-09T11:27:47.117Z,29.90
2023-04-09T11:28:46.468Z,29.90
2023-04-09T11:29:46.455Z,29.92
2023-04-09T11:30:46.471Z,29.90
2023-04-09T11:31:46.530Z,29.90
2023-04-09T11:32:46.513Z,29.92
2023-04-09T11:33:46.530Z,29.90
2023-04-09T11:34:46.549Z,29.91
2023-04-09T11:35:46.643Z,29.90
2023-04-09T11:36:46.579Z,29.90
2023-04-09T11:37:46.618Z,29.89
2023-04-09T11:38:46.634Z,29.90
2023-04-09T11:39:46.621Z,29.89
2023-04-09T11:40:46.637Z,29.89
2023-04-09T11:41:46.630Z,29.91
2023-04-09T11:42:46.701Z,29.89
2023-04-09T11:43:46.689Z,29.90
2023-04-09T11:44:46.687Z,29.91
2023-04-09T11:45:46.724Z,29.91
2023-04-09T11:46:46.790Z,29.90
2023-04-09T11:47:46.770Z,29.91
2023-04-09T11:48:46.734Z,29.92
2023-04-09T11:49:46.750Z,29.89
2023-04-09T11:50:46.783Z,29.88
2023-04-09T11:51:46.817Z,29.91
2023-04-09T11:52:46.772Z,29.90
2023-04-09T11:53:46.813Z,29.89
2023-04-09T11:54:46.830Z,29.89
2023-04-09T11:55:46.859Z,29.88
2023-04-09T11:56:46.886Z,29.91
2023-04-09T11:57:46.877Z,29.88
2023-04-09T11:58:46.916Z,29.85
2023-04-09T11:59:46.900Z,29.87
2023-04-09T12:00:46.884Z,29.86
2023-04-09T12:01:46.932Z,29.89
2023-04-09T12:02:47.074Z,29.86
2023-04-09T12:03:47.003Z,29.86
2023-04-09T12:04:47.049Z,29.85
2023-04-09T12:05:50.669Z,29.87
2023-04-09T12:06:46.938Z,29.87
2023-04-09T12:07:55.627Z,29.83
2023-04-09T12:08:47.929Z,29.86
2023-04-09T12:09:46.896Z,29.83
2023-04-09T12:10:46.867Z,29.84
2023-04-09T12:11:46.904Z,29.84
2023-04-09T12:12:46.920Z,29.83
2023-04-09T12:13:46.897Z,29.84
2023-04-09T12:14:46.879Z,29.80
2023-04-09T12:15:46.871Z,29.82
2023-04-09T12:16:46.870Z,29.80
2023-04-09T12:17:46.861Z,29.81
2023-04-09T12:18:46.829Z,29.81
2023-04-09T12:19:46.807Z,29.77
2023-04-09T12:20:46.829Z,29.76
2023-04-09T12:21:46.825Z,29.75
2023-04-09T12:22:46.803Z,29.74
2023-04-09T12:23:46.813Z,29.75
2023-04-09T12:24:46.787Z,29.76
2023-04-09T12:25:46.800Z,29.75
2023-04-09T12:26:46.789Z,29.76
2023-04-09T12:27:46.759Z,29.76
2023-04-09T12:28:46.744Z,29.73
2023-04-09T12:29:46.770Z,29.74
2023-04-09T12:30:46.779Z,29.74
2023-04-09T12:31:46.753Z,29.73
2023-04-09T12:32:46.767Z,29.74
2023-04-09T12:33:46.753Z,29.77
2023-04-09T12:34:46.709Z,29.77
2023-04-09T12:35:46.719Z,29.75
2023-04-09T12:36:46.711Z,29.75
2023-04-09T12:37:46.701Z,29.75
2023-04-09T12:38:46.695Z,29.75
2023-04-09T12:39:46.685Z,29.78
2023-04-09T12:40:46.696Z,29.76
2023-04-09T12:41:46.690Z,29.76
2023-04-09T12:42:46.668Z,29.77
2023-04-09T12:43:46.660Z,29.76
2023-04-09T12:44:46.636Z,29.75
2023-04-09T12:45:46.641Z,29.76
2023-04-09T12:46:46.617Z,29.76
2023-04-09T12:47:46.665Z,29.73
2023-04-09T12:48:46.649Z,29.74
2023-04-09T12:49:46.617Z,29.75
2023-04-09T12:50:46.605Z,29.76
2023-04-09T12:51:46.601Z,29.78
2023-04-09T12:52:46.592Z,29.77